Time;durP1;ratioP1;P1;durP2;ratioP2;P2;SDS_P1;SDS_P2;PMS_P1;PMS_P2;Temp;Humidity;BMP_temperature;BMP_pressure;BME280_temperature;BME280_humidity;BME280_pressure;Samples;Min_cycle;Max_cycle;Signal;HPM_P1;HPM_P2
2022/04/03 00:00:13;;;;;;;;;13.75;12.75;;;;;5.69;50.44;101976.78;5040758;28;45520;-69
2022/04/03 00:02:39;;;;;;;;;17.25;13.75;;;;;5.68;50.92;101975.03;5039475;28;45761;-69
2022/04/03 00:05:05;;;;;;;;;15.50;13.50;;;;;5.64;51.12;101985.50;5039657;28;46035;-69
2022/04/03 00:07:31;;;;;;;;;13.75;12.00;;;;;5.74;50.82;102002.84;5039630;28;45416;-69
2022/04/03 00:09:56;;;;;;;;;14.00;12.75;;;;;5.58;51.31;101978.53;5039978;28;45968;-69
2022/04/03 00:12:22;;;;;;;;;11.50;11.50;;;;;5.56;50.52;101971.59;5038058;28;45633;-69
2022/04/03 00:14:48;;;;;;;;;20.25;15.50;;;;;5.65;50.90;101984.63;5033359;28;45535;-69
2022/04/03 00:17:13;;;;;;;;;15.25;12.50;;;;;5.62;50.97;101992.44;5030478;28;45361;-69
2022/04/03 00:19:39;;;;;;;;;19.25;13.25;;;;;5.57;51.33;101971.59;5036144;28;45397;-69
2022/04/03 00:22:04;;;;;;;;;14.00;12.75;;;;;5.62;50.73;101979.41;5036246;28;45321;-68
2022/04/03 00:24:29;;;;;;;;;14.25;12.00;;;;;5.60;51.38;101975.94;5022885;28;46429;-69
2022/04/03 00:26:55;;;;;;;;;17.75;13.25;;;;;5.61;50.97;101977.66;5036069;28;45551;-69
2022/04/03 00:29:21;;;;;;;;;18.75;12.25;;;;;5.64;51.44;101980.28;5035699;28;45473;-69
2022/04/03 00:31:46;;;;;;;;;15.50;13.00;;;;;5.66;51.37;101986.34;5035479;28;45491;-68
2022/04/03 00:34:11;;;;;;;;;15.00;10.00;;;;;5.64;50.85;101980.28;5036315;28;45436;-68
2022/04/03 00:36:37;;;;;;;;;14.75;10.25;;;;;5.65;50.97;101987.22;5035784;28;45512;-69
2022/04/03 00:39:03;;;;;;;;;12.25;11.00;;;;;5.72;50.94;102007.19;5036268;28;45337;-68
2022/04/03 00:41:28;;;;;;;;;13.50;11.75;;;;;5.72;51.33;101996.75;5035927;28;45332;-68
2022/04/03 00:43:55;;;;;;;;;17.25;14.50;;;;;5.68;51.47;102001.09;5036150;28;46416;-68
2022/04/03 00:46:24;;;;;;;;;16.00;16.00;;;;;5.56;51.41;101982.03;5034897;28;46019;-68
2022/04/03 00:48:50;;;;;;;;;20.00;14.50;;;;;5.55;51.46;101988.13;5035786;28;45578;-69
2022/04/03 00:51:17;;;;;;;;;16.25;14.25;;;;;5.53;51.69;101988.09;5028622;28;45479;-69
2022/04/03 00:53:43;;;;;;;;;23.75;16.00;;;;;5.51;51.49;101987.25;5033562;28;45502;-68
2022/04/03 00:56:08;;;;;;;;;22.25;13.00;;;;;5.48;52.03;101990.75;5035479;28;45516;-68
2022/04/03 00:58:37;;;;;;;;;14.50;12.25;;;;;5.59;51.33;102006.38;5035669;28;45429;-69
2022/04/03 01:01:03;;;;;;;;;13.50;13.00;;;;;5.45;51.20;101985.53;5035474;28;45449;-68
2022/04/03 01:03:28;;;;;;;;;13.75;10.75;;;;;5.46;51.86;101992.47;5036199;28;46392;-69
2022/04/03 01:05:55;;;;;;;;;18.00;14.25;;;;;5.42;51.39;101985.50;5034727;28;45467;-69
2022/04/03 01:08:23;;;;;;;;;17.50;13.50;;;;;5.40;51.38;101989.00;5040027;28;45536;-68
2022/04/03 01:10:48;;;;;;;;;9.00;9.00;;;;;5.44;52.04;101994.22;5034307;28;45525;-69
2022/04/03 01:13:14;;;;;;;;;15.75;12.50;;;;;5.43;51.71;102002.91;5034882;28;46235;-69
2022/04/03 01:15:39;;;;;;;;;16.00;14.75;;;;;5.39;51.65;101993.34;5035798;28;45345;-69
2022/04/03 01:18:05;;;;;;;;;14.50;13.75;;;;;5.37;51.62;101992.47;5036027;28;45975;-69
2022/04/03 01:20:30;;;;;;;;;16.50;13.75;;;;;5.32;51.84;101994.22;5035465;28;45392;-69
2022/04/03 01:22:56;;;;;;;;;13.67;10.67;;;;;5.28;52.15;101999.47;5034120;28;49828;-69
2022/04/03 01:25:21;;;;;;;;;14.75;13.00;;;;;5.22;52.32;101995.13;5035284;28;45238;-69
2022/04/03 01:27:47;;;;;;;;;14.50;12.50;;;;;5.16;52.01;101995.97;5030625;28;45267;-69
2022/04/03 01:30:12;;;;;;;;;21.25;13.00;;;;;5.12;52.17;101999.47;5035562;28;45317;-69
2022/04/03 01:32:38;;;;;;;;;16.00;13.00;;;;;5.08;52.25;101996.88;5035139;28;45290;-69
2022/04/03 01:35:05;;;;;;;;;12.50;12.00;;;;;5.03;53.07;101996.00;5034791;28;45583;-69
2022/04/03 01:37:30;;;;;;;;;25.75;16.25;;;;;5.01;52.97;101997.72;5033850;28;45355;-69
2022/04/03 01:39:55;;;;;;;;;15.67;14.00;;;;;4.96;53.08;101998.59;5031892;28;45532;-69
2022/04/03 01:42:21;;;;;;;;;22.67;14.67;;;;;4.94;53.27;101995.09;5034742;28;48473;-69
2022/04/03 01:44:46;;;;;;;;;15.50;11.75;;;;;4.92;53.35;101991.66;5034864;28;45394;-69
2022/04/03 01:47:12;;;;;;;;;14.00;14.00;;;;;4.91;53.42;101991.66;5034331;28;45810;-69
2022/04/03 01:49:37;;;;;;;;;15.75;15.75;;;;;4.90;53.58;101988.16;5034957;28;45457;-69
2022/04/03 01:52:03;;;;;;;;;10.75;10.75;;;;;4.91;53.30;101991.66;5033151;28;46389;-69
2022/04/03 01:54:29;;;;;;;;;13.50;11.50;;;;;4.93;54.02;101997.72;5035752;28;45416;-69
2022/04/03 01:56:54;;;;;;;;;16.33;12.00;;;;;4.95;53.92;101996.84;5033346;28;45377;-68
2022/04/03 01:59:19;;;;;;;;;22.75;17.50;;;;;5.00;54.16;101998.59;5033938;28;45631;-68
2022/04/03 02:01:45;;;;;;;;;27.00;23.75;;;;;5.03;54.25;101985.56;5033392;28;45703;-69
2022/04/03 02:04:10;;;;;;;;;21.75;21.25;;;;;5.06;54.10;101991.63;5034704;28;45436;-68
2022/04/03 02:06:36;;;;;;;;;21.00;18.50;;;;;5.08;53.43;102002.94;5034358;28;45299;-68
2022/04/03 02:09:01;;;;;;;;;23.25;20.00;;;;;5.09;53.47;101988.16;5034435;28;45415;-68
2022/04/03 02:11:28;;;;;;;;;24.00;21.25;;;;;5.13;54.12;101996.00;5033224;28;46222;-68
2022/04/03 02:13:53;;;;;;;;;26.25;23.75;;;;;5.15;53.75;101991.63;5033677;28;45420;-69
2022/04/03 02:16:18;;;;;;;;;19.67;15.00;;;;;5.16;53.60;101987.28;5034715;28;45470;-68
2022/04/03 02:18:44;;;;;;;;;19.25;14.75;;;;;5.16;53.77;101990.75;5033863;28;45405;-68
2022/04/03 02:21:09;;;;;;;;;19.50;16.00;;;;;5.17;53.85;101991.66;5034032;28;46096;-68
2022/04/03 02:23:35;;;;;;;;;19.00;15.00;;;;;5.16;53.86;101993.38;5033808;28;45410;-68
2022/04/03 02:26:00;;;;;;;;;22.00;17.00;;;;;5.15;53.55;101989.03;5033402;28;45798;-69
2022/04/03 02:28:25;;;;;;;;;15.75;15.00;;;;;5.14;53.95;101995.13;5034511;28;47328;-69
2022/04/03 02:30:51;;;;;;;;;13.25;10.25;;;;;5.11;53.88;101997.72;5034090;28;46274;-69
2022/04/03 02:33:16;;;;;;;;;16.00;12.75;;;;;5.10;54.25;102000.31;5034402;28;45401;-69
2022/04/03 02:35:41;;;;;;;;;16.50;15.50;;;;;5.07;53.95;101995.13;5032503;28;45350;-69
2022/04/03 02:38:07;;;;;;;;;15.00;11.25;;;;;5.03;53.97;101990.78;5029570;28;45409;-69
2022/04/03 02:40:33;;;;;;;;;10.25;9.75;;;;;5.08;54.01;101995.13;5030965;28;46076;-69
2022/04/03 02:42:58;;;;;;;;;11.25;10.25;;;;;5.10;53.91;101992.50;5034140;28;46001;-69
2022/04/03 02:45:24;;;;;;;;;9.75;9.75;;;;;5.09;53.99;101989.03;5034077;28;45466;-69
2022/04/03 02:47:54;;;;;;;;;13.25;11.50;;;;;5.10;54.18;101984.69;5033530;28;45409;-69
2022/04/03 02:50:22;;;;;;;;;16.50;15.00;;;;;5.09;53.91;101996.00;5034018;28;46154;-69
2022/04/03 02:52:51;;;;;;;;;8.00;8.00;;;;;5.06;54.07;101998.59;5031889;28;45984;-69
2022/04/03 02:55:18;;;;;;;;;18.50;15.50;;;;;5.06;54.18;101999.44;5033647;28;45306;-69
2022/04/03 02:57:44;;;;;;;;;13.00;9.25;;;;;5.06;54.30;101995.97;5032799;28;45415;-69
2022/04/03 03:00:14;;;;;;;;;9.75;8.50;;;;;5.06;54.28;101991.63;5033526;28;45557;-69
2022/04/03 03:02:44;;;;;;;;;14.00;13.75;;;;;5.07;54.78;101995.13;5031982;28;46003;-69
2022/04/03 03:05:09;;;;;;;;;15.50;9.50;;;;;5.09;54.44;101996.84;5034049;28;45290;-69
2022/04/03 03:07:36;;;;;;;;;14.50;13.00;;;;;5.08;54.36;101995.13;5033184;28;45537;-70
2022/04/03 03:10:02;;;;;;;;;12.75;12.25;;;;;5.10;53.79;102002.94;5032003;28;46272;-70
2022/04/03 03:12:29;;;;;;;;;16.75;11.25;;;;;5.09;54.96;102006.41;5027803;28;45778;-70
2022/04/03 03:14:56;;;;;;;;;19.75;16.00;;;;;5.09;54.55;102007.28;5033520;28;45437;-70
2022/04/03 03:17:22;;;;;;;;;12.25;11.50;;;;;5.09;54.16;102011.63;5033755;28;45413;-70
2022/04/03 03:19:47;;;;;;;;;13.00;9.75;;;;;5.09;55.02;102006.41;5032050;28;46100;-70
2022/04/03 03:22:12;;;;;;;;;12.75;9.75;;;;;5.09;54.59;102006.41;5029570;28;45485;-70
2022/04/03 03:24:37;;;;;;;;;12.00;12.00;;;;;5.07;55.16;102011.63;5033053;28;45452;-70
2022/04/03 03:27:04;;;;;;;;;12.33;11.00;;;;;5.09;54.85;102016.84;5032114;28;45274;-70
2022/04/03 03:29:30;;;;;;;;;16.50;13.00;;;;;5.07;54.92;102018.59;5035438;28;46027;-69
2022/04/03 03:31:55;;;;;;;;;12.50;10.75;;;;;5.05;54.86;102021.16;5037555;28;45419;-70
2022/04/03 03:34:20;;;;;;;;;12.75;11.00;;;;;5.03;54.60;102014.22;5033653;28;45430;-69
2022/04/03 03:36:46;;;;;;;;;13.00;9.00;;;;;5.00;55.00;102024.63;5032817;28;46732;-69
2022/04/03 03:39:12;;;;;;;;;13.25;12.25;;;;;4.97;54.96;102017.69;5032170;28;45605;-69
2022/04/03 03:41:37;;;;;;;;;9.00;7.00;;;;;4.97;54.47;102021.19;5025948;28;45886;-69
2022/04/03 03:44:09;;;;;;;;;11.75;11.50;;;;;4.95;55.08;102019.41;5026135;28;45813;-69
2022/04/03 03:46:35;;;;;;;;;12.00;11.50;;;;;4.92;54.88;102022.03;5021948;28;45333;-69
2022/04/03 03:49:00;;;;;;;;;13.50;12.00;;;;;4.89;55.29;102017.69;5033537;28;46360;-69
2022/04/03 03:51:25;;;;;;;;;12.00;11.67;;;;;4.88;55.11;102023.75;5037262;28;46984;-69
2022/04/03 03:53:51;;;;;;;;;14.33;11.33;;;;;4.84;55.25;102023.75;5036575;28;45563;-69
2022/04/03 03:56:16;;;;;;;;;11.25;10.75;;;;;4.82;54.98;102021.16;5036227;28;45428;-69
2022/04/03 03:58:42;;;;;;;;;11.25;9.00;;;;;4.81;55.06;102022.03;5034873;28;47036;-69
2022/04/03 04:01:07;;;;;;;;;12.00;12.00;;;;;4.80;55.10;102030.69;5035978;28;45492;-69
2022/04/03 04:03:32;;;;;;;;;12.25;10.75;;;;;4.78;55.47;102019.41;5035873;28;45515;-69
2022/04/03 04:05:58;;;;;;;;;12.00;8.00;;;;;4.75;55.17;102021.13;5031931;28;45543;-70
2022/04/03 04:08:23;;;;;;;;;14.00;11.50;;;;;4.75;55.15;102026.34;5030982;28;45903;-69
2022/04/03 04:10:48;;;;;;;;;13.25;12.25;;;;;4.69;55.56;102022.84;5034071;28;45472;-69
2022/04/03 04:13:14;;;;;;;;;12.00;12.00;;;;;4.65;55.05;102023.75;5033346;28;45524;-69
2022/04/03 04:15:39;;;;;;;;;10.00;9.75;;;;;4.61;55.42;102026.34;5034476;28;45315;-69
2022/04/03 04:18:04;;;;;;;;;8.00;8.00;;;;;4.57;55.28;102022.84;5034746;28;49840;-69
2022/04/03 04:20:30;;;;;;;;;19.25;11.00;;;;;4.56;55.73;102030.66;5035330;28;45415;-69
2022/04/03 04:22:55;;;;;;;;;11.67;11.00;;;;;4.53;55.60;102031.50;5032267;28;45606;-69
2022/04/03 04:25:20;;;;;;;;;14.00;8.75;;;;;4.52;56.08;102039.31;5035214;28;45449;-69
2022/04/03 04:27:46;;;;;;;;;17.00;10.50;;;;;4.52;55.52;102041.91;5035162;28;45989;-69
2022/04/03 04:30:13;;;;;;;;;12.25;11.50;;;;;4.51;55.93;102045.38;5033992;28;45534;-69
2022/04/03 04:32:39;;;;;;;;;8.75;8.75;;;;;4.49;55.26;102044.50;5035893;28;45354;-69
2022/04/03 04:35:05;;;;;;;;;12.00;9.75;;;;;4.47;56.24;102049.72;5033637;28;45424;-69
2022/04/03 04:37:31;;;;;;;;;21.00;12.50;;;;;4.47;56.04;102041.03;5034963;28;46824;-69
2022/04/03 04:39:57;;;;;;;;;12.50;10.75;;;;;4.45;55.86;102049.72;5033664;28;46548;-70
2022/04/03 04:42:22;;;;;;;;;12.50;11.50;;;;;4.41;55.88;102049.69;5030566;28;45461;-69
2022/04/03 04:44:48;;;;;;;;;13.50;10.25;;;;;4.33;56.16;102052.28;5033042;28;45618;-69
2022/04/03 04:47:14;;;;;;;;;11.75;8.25;;;;;4.26;55.98;102045.28;5031658;28;46142;-69
2022/04/03 04:49:39;;;;;;;;;15.50;12.00;;;;;4.21;56.05;102053.94;5035159;28;45344;-69
2022/04/03 04:52:05;;;;;;;;;11.50;7.75;;;;;4.14;55.88;102059.13;5033841;28;45536;-69
2022/04/03 04:54:30;;;;;;;;;12.00;7.50;;;;;4.09;56.29;102065.19;5035749;28;45549;-69
2022/04/03 04:56:57;;;;;;;;;11.00;7.75;;;;;4.03;56.62;102057.34;5034124;28;46296;-70
2022/04/03 04:59:22;;;;;;;;;11.25;9.50;;;;;4.00;56.91;102062.50;5030964;28;45392;-70
2022/04/03 05:01:48;;;;;;;;;19.00;11.25;;;;;3.99;56.99;102063.38;5031088;28;45564;-70
2022/04/03 05:04:14;;;;;;;;;13.50;10.75;;;;;3.94;57.15;102058.16;5034614;28;45568;-70
2022/04/03 05:06:40;;;;;;;;;12.00;10.00;;;;;3.95;57.00;102072.88;5035201;28;45967;-69
2022/04/03 05:09:06;;;;;;;;;11.00;10.00;;;;;3.91;57.42;102072.03;5028227;28;46020;-70
2022/04/03 05:11:33;;;;;;;;;14.25;9.00;;;;;3.89;57.57;102076.31;5033604;28;45465;-70
2022/04/03 05:13:59;;;;;;;;;8.75;8.25;;;;;3.87;57.46;102080.66;5034263;28;45630;-69
2022/04/03 05:16:24;;;;;;;;;14.00;7.75;;;;;3.84;57.43;102074.56;5034159;28;46045;-69
2022/04/03 05:18:50;;;;;;;;;16.00;10.75;;;;;3.80;57.63;102071.06;5031136;28;45480;-70
2022/04/03 05:21:16;;;;;;;;;7.75;5.00;;;;;3.77;57.71;102073.66;5035187;28;45528;-69
2022/04/03 05:23:41;;;;;;;;;10.50;7.00;;;;;3.74;57.71;102075.38;5032546;28;45507;-69
2022/04/03 05:26:07;;;;;;;;;11.25;8.75;;;;;3.70;57.41;102078.78;5033464;28;45495;-70
2022/04/03 05:28:32;;;;;;;;;11.00;8.75;;;;;3.68;57.21;102081.38;5033244;28;45594;-70
2022/04/03 05:30:58;;;;;;;;;14.25;8.75;;;;;3.63;58.21;102081.34;5033695;28;45487;-70
2022/04/03 05:33:24;;;;;;;;;9.25;9.25;;;;;3.62;58.13;102087.41;5035165;28;45404;-70
2022/04/03 05:35:50;;;;;;;;;14.75;8.00;;;;;3.60;57.46;102086.56;5034595;28;46082;-70
2022/04/03 05:38:16;;;;;;;;;12.50;8.00;;;;;3.56;58.03;102094.31;5034053;28;45483;-70
2022/04/03 05:40:41;;;;;;;;;9.00;9.00;;;;;3.54;57.80;102101.22;5034902;28;45361;-70
2022/04/03 05:43:06;;;;;;;;;14.25;10.25;;;;;3.49;57.96;102102.91;5032160;28;45604;-70
2022/04/03 05:45:32;;;;;;;;;8.75;8.00;;;;;3.48;58.21;102103.75;5033297;28;46359;-70
2022/04/03 05:47:57;;;;;;;;;10.25;9.25;;;;;3.47;57.40;102108.09;5025906;28;45748;-71
2022/04/03 05:50:23;;;;;;;;;11.00;11.00;;;;;3.44;57.29;102102.00;5034930;28;45453;-70
2022/04/03 05:52:50;;;;;;;;;10.00;8.50;;;;;3.39;58.35;102105.44;5033288;28;45480;-70
2022/04/03 05:55:18;;;;;;;;;14.50;9.25;;;;;3.39;57.82;102104.53;5034069;28;47254;-70
2022/04/03 05:57:45;;;;;;;;;8.25;8.25;;;;;3.38;58.14;102111.47;5030489;28;46060;-70
2022/04/03 06:00:15;;;;;;;;;8.50;7.25;;;;;3.36;57.83;102104.53;5025286;28;45589;-70
2022/04/03 06:02:55;;;;;;;;;7.75;7.75;;;;;3.37;58.12;102108.88;5027216;28;45577;-70
2022/04/03 06:05:29;;;;;;;;;14.00;10.25;;;;;3.39;57.86;102115.84;5033308;28;46203;-70
2022/04/03 06:07:55;;;;;;;;;18.25;12.50;;;;;3.42;58.23;102112.38;5032648;28;45548;-70
2022/04/03 06:10:22;;;;;;;;;17.25;11.25;;;;;3.43;57.74;102113.25;5032420;28;45370;-70
2022/04/03 06:13:00;;;;;;;;;18.25;12.00;;;;;3.46;58.48;102111.56;5032185;28;45416;-70
2022/04/03 06:15:28;;;;;;;;;13.75;12.00;;;;;3.52;58.03;102113.34;5040731;28;46265;-70
2022/04/03 06:17:54;;;;;;;;;12.50;10.00;;;;;3.57;58.08;102116.84;5034104;28;45608;-70
2022/04/03 06:20:19;;;;;;;;;10.00;8.25;;;;;3.58;57.45;102119.44;5026883;28;45608;-70
2022/04/03 06:22:45;;;;;;;;;13.75;13.00;;;;;3.56;57.54;102126.38;5014394;28;45525;-70
2022/04/03 06:25:12;;;;;;;;;18.00;14.00;;;;;3.55;57.64;102123.72;5025306;28;46111;-69
2022/04/03 06:27:37;;;;;;;;;18.50;10.75;;;;;3.55;57.29;102123.72;5028749;28;45405;-70
2022/04/03 06:30:03;;;;;;;;;13.75;11.00;;;;;3.57;57.63;102130.72;5031752;28;45809;-70
2022/04/03 06:32:29;;;;;;;;;15.25;10.00;;;;;3.61;57.91;102137.69;5033426;28;45540;-70
2022/04/03 06:34:55;;;;;;;;;11.00;11.00;;;;;3.66;57.44;102141.19;5033625;28;46045;-70
2022/04/03 06:37:20;;;;;;;;;10.00;10.00;;;;;3.73;57.61;102142.09;5034044;28;45590;-70
2022/04/03 06:39:45;;;;;;;;;10.75;10.25;;;;;3.81;57.49;102143.03;5034077;28;45308;-70
2022/04/03 06:42:11;;;;;;;;;13.33;9.67;;;;;3.89;57.26;102145.69;5034751;28;45387;-70
2022/04/03 06:44:38;;;;;;;;;14.00;11.00;;;;;3.89;57.22;102143.94;5033764;28;46167;-70
2022/04/03 06:47:04;;;;;;;;;14.25;11.00;;;;;4.01;57.29;102150.97;5027301;28;46757;-69
2022/04/03 06:49:30;;;;;;;;;16.25;13.50;;;;;4.17;56.73;102146.72;5032451;28;45621;-70
2022/04/03 06:51:55;;;;;;;;;18.25;15.00;;;;;4.27;56.71;102150.25;5033879;28;45625;-70
2022/04/03 06:54:20;;;;;;;;;19.33;14.33;;;;;4.41;56.60;102149.47;5034141;28;46131;-70
2022/04/03 06:56:46;;;;;;;;;23.75;15.00;;;;;4.56;56.60;102150.41;5037749;28;45295;-70
2022/04/03 06:59:11;;;;;;;;;11.50;11.50;;;;;4.71;56.08;102158.28;5033071;28;45511;-71
2022/04/03 07:01:36;;;;;;;;;12.25;10.00;;;;;4.88;56.44;102147.94;5013859;28;48060;-70
2022/04/03 07:04:02;;;;;;;;;21.75;15.50;;;;;5.06;56.11;102163.59;5029254;28;45919;-69
2022/04/03 07:06:27;;;;;;;;;16.50;14.00;;;;;5.10;55.47;102159.28;5033435;28;45484;-70
2022/04/03 07:08:53;;;;;;;;;11.50;11.25;;;;;5.10;55.56;102157.53;5030738;28;45401;-70
2022/04/03 07:11:19;;;;;;;;;17.75;12.00;;;;;5.27;55.26;102164.50;5017828;28;45658;-70
2022/04/03 07:13:44;;;;;;;;;14.00;11.75;;;;;5.30;54.87;102167.13;5032391;28;45519;-70
2022/04/03 07:16:09;;;;;;;;;15.00;11.33;;;;;5.37;55.10;102167.13;5019069;28;64600;-70
2022/04/03 07:18:36;;;;;;;;;15.33;13.67;;;;;5.41;54.54;102165.41;5029166;28;47311;-70
2022/04/03 07:21:02;;;;;;;;;14.25;12.25;;;;;5.43;54.25;102166.31;5029912;28;45487;-70
2022/04/03 07:23:27;;;;;;;;;14.50;10.75;;;;;5.53;54.20;102168.03;5028209;28;45458;-70
2022/04/03 07:25:52;;;;;;;;;15.50;11.50;;;;;5.53;54.09;102170.63;5035720;28;45490;-70
2022/04/03 07:28:18;;;;;;;;;12.50;12.00;;;;;5.56;54.20;102169.78;5036921;28;45459;-71
2022/04/03 07:30:43;;;;;;;;;15.25;11.75;;;;;5.62;54.22;102177.59;5036765;28;45436;-69
2022/04/03 07:33:09;;;;;;;;;15.00;12.00;;;;;5.69;54.07;102174.13;5034691;28;46316;-70
2022/04/03 07:35:34;;;;;;;;;18.75;12.50;;;;;5.78;53.84;102184.56;5028418;28;45311;-70
2022/04/03 07:38:00;;;;;;;;;11.25;10.50;;;;;5.88;53.80;102178.47;5029511;28;45715;-70
2022/04/03 07:40:25;;;;;;;;;11.75;9.50;;;;;5.94;53.43;102175.03;5024842;28;45477;-70
2022/04/03 07:42:52;;;;;;;;;13.75;12.00;;;;;6.06;53.20;102180.25;5035244;28;45931;-70
2022/04/03 07:45:18;;;;;;;;;13.00;11.75;;;;;6.19;53.20;102181.09;5037167;28;45906;-70
2022/04/03 07:47:48;;;;;;;;;14.75;12.00;;;;;6.30;52.99;102186.28;5035400;28;45528;-70
2022/04/03 07:50:15;;;;;;;;;12.25;10.00;;;;;6.40;52.55;102188.00;5036301;28;45283;-70
2022/04/03 07:52:41;;;;;;;;;16.50;12.50;;;;;6.47;52.41;102185.38;5032742;28;46705;-70
2022/04/03 07:55:10;;;;;;;;;16.50;11.00;;;;;6.58;52.24;102190.59;5021167;28;45405;-70
2022/04/03 07:57:36;;;;;;;;;20.00;12.25;;;;;6.72;52.45;102186.16;5029550;28;45454;-70
2022/04/03 08:00:06;;;;;;;;;19.00;9.50;;;;;6.83;52.31;102190.47;5034173;28;45466;-71
2022/04/03 08:02:32;;;;;;;;;19.50;15.50;;;;;6.98;52.11;102193.00;5034477;28;46145;-71
2022/04/03 08:04:58;;;;;;;;;16.00;14.00;;;;;7.11;51.62;102191.22;5044322;28;46442;-71
2022/04/03 08:07:34;;;;;;;;;9.50;9.25;;;;;7.22;51.39;102192.91;5036382;28;45298;-71
2022/04/03 08:09:59;;;;;;;;;12.50;11.00;;;;;7.25;50.91;102192.00;5033916;28;45414;-71
2022/04/03 08:12:25;;;;;;;;;12.75;12.00;;;;;7.31;50.68;102200.69;5036645;28;47110;-71
2022/04/03 08:14:50;;;;;;;;;17.33;9.33;;;;;7.46;50.45;102188.38;5033364;28;45425;-71
2022/04/03 08:17:15;;;;;;;;;14.67;13.67;;;;;7.64;50.65;102201.34;5030080;28;48468;-71
2022/04/03 08:19:41;;;;;;;;;13.00;10.67;;;;;7.80;50.59;102195.09;5032439;28;51361;-71
2022/04/03 08:22:07;;;;;;;;;15.25;11.25;;;;;7.92;49.68;102198.50;5028487;28;46030;-71
2022/04/03 08:24:32;;;;;;;;;11.00;10.00;;;;;8.04;49.42;102194.03;5035315;28;47664;-71
2022/04/03 08:26:57;;;;;;;;;9.33;9.00;;;;;8.20;49.02;102196.50;5034051;28;47765;-71
2022/04/03 08:29:22;;;;;;;;;9.00;6.00;;;;;8.35;48.51;102197.22;5035388;28;45358;-71
2022/04/03 08:31:48;;;;;;;;;11.75;8.00;;;;;8.48;48.49;102202.34;5031691;28;46054;-71
2022/04/03 08:34:13;;;;;;;;;10.00;7.25;;;;;8.66;48.93;102199.53;5029121;28;45716;-69
2022/04/03 08:36:38;;;;;;;;;13.25;11.50;;;;;8.90;48.44;102203.59;5034747;28;45393;-69
2022/04/03 08:39:04;;;;;;;;;6.25;6.25;;;;;9.16;48.45;102205.91;5035320;28;45412;-69
2022/04/03 08:41:29;;;;;;;;;18.00;10.00;;;;;9.56;48.01;102200.94;5031482;28;46813;-70
2022/04/03 08:43:54;;;;;;;;;10.25;10.00;;;;;10.22;47.36;102199.81;5034802;28;45432;-70
2022/04/03 08:46:22;;;;;;;;;9.75;7.00;;;;;11.35;47.21;102200.19;5034556;28;45627;-70
2022/04/03 08:48:47;;;;;;;;;10.50;7.00;;;;;12.33;45.52;102189.88;5035113;28;45505;-70
2022/04/03 08:51:13;;;;;;;;;14.75;7.00;;;;;14.19;46.19;102185.03;5036748;28;45494;-69
2022/04/03 08:53:39;;;;;;;;;8.00;6.00;;;;;17.78;43.72;102191.09;5036356;28;46062;-70
2022/04/03 08:56:05;;;;;;;;;8.50;7.00;;;;;20.79;40.61;102182.13;5034066;28;45474;-71
2022/04/03 08:58:30;;;;;;;;;9.00;7.00;;;;;23.31;37.46;102185.47;5026040;28;45520;-70
2022/04/03 09:00:56;;;;;;;;;12.50;9.00;;;;;25.14;35.28;102181.13;5034621;28;45392;-71
2022/04/03 09:03:21;;;;;;;;;8.50;6.00;;;;;26.49;32.95;102177.81;5026338;28;45720;-68
2022/04/03 09:05:47;;;;;;;;;7.00;7.00;;;;;27.71;31.26;102177.56;5030666;28;45229;-71
2022/04/03 09:08:13;;;;;;;;;11.25;6.75;;;;;28.94;28.20;102182.13;5032669;28;45544;-71
2022/04/03 09:10:41;;;;;;;;;8.75;5.50;;;;;29.84;28.32;102173.88;5031244;28;47006;-71
2022/04/03 09:13:08;;;;;;;;;5.00;5.00;;;;;30.71;26.29;102177.53;5031748;28;46127;-71
2022/04/03 09:15:33;;;;;;;;;3.00;3.00;;;;;31.33;25.81;102182.69;5032590;28;45461;-71
2022/04/03 09:18:03;;;;;;;;;7.25;5.00;;;;;32.72;25.12;102186.13;5033815;28;45745;-71
2022/04/03 09:20:32;;;;;;;;;4.00;4.00;;;;;33.07;22.33;102183.94;5032330;28;46324;-72
2022/04/03 09:23:00;;;;;;;;;4.75;4.75;;;;;33.26;22.35;102194.38;5036619;28;45440;-70
2022/04/03 09:25:28;;;;;;;;;6.00;4.50;;;;;33.49;21.75;102184.38;5031992;28;45537;-70
2022/04/03 09:27:58;;;;;;;;;5.50;5.50;;;;;33.60;20.38;102187.69;5033561;28;45401;-71
2022/04/03 09:30:29;;;;;;;;;4.00;4.00;;;;;33.73;21.09;102185.22;5048241;28;45963;-71
2022/04/03 09:32:56;;;;;;;;;4.00;3.75;;;;;33.42;19.79;102183.41;5035947;28;45743;-70
2022/04/03 09:35:27;;;;;;;;;4.50;4.00;;;;;33.74;19.37;102192.34;5036585;28;45440;-71
2022/04/03 09:38:11;;;;;;;;;3.00;2.00;;;;;34.18;19.83;102184.28;5034541;28;45319;-69
2022/04/03 09:40:41;;;;;;;;;2.00;2.00;;;;;34.05;17.75;102186.81;5029809;28;45455;-70
2022/04/03 09:43:16;;;;;;;;;3.00;2.50;;;;;32.98;19.04;102183.97;5040214;28;45843;-70
2022/04/03 09:45:58;;;;;;;;;2.00;2.00;;;;;31.91;19.20;102189.88;5030224;28;45532;-71
2022/04/03 09:48:39;;;;;;;;;2.00;2.00;;;;;30.01;18.30;102187.56;5027749;28;45502;-71
2022/04/03 09:51:12;;;;;;;;;2.00;2.00;;;;;28.39;18.41;102193.69;5031263;28;45721;-71
2022/04/03 09:53:52;;;;;;;;;2.00;2.00;;;;;27.12;19.05;102180.34;5035457;28;45727;-70
2022/04/03 09:56:23;;;;;;;;;4.75;3.00;;;;;26.64;20.14;102192.66;5036199;28;45488;-71
2022/04/03 09:58:51;;;;;;;;;3.00;3.00;;;;;25.83;19.47;102188.00;5033938;28;45570;-70
2022/04/03 10:01:24;;;;;;;;;2.00;2.00;;;;;25.14;19.83;102194.56;5047395;28;45811;-71
2022/04/03 10:03:51;;;;;;;;;1.00;1.00;;;;;25.03;19.97;102191.88;5034042;28;45790;-71
2022/04/03 10:06:18;;;;;;;;;1.25;1.00;;;;;24.81;20.06;102194.59;5036007;28;45499;-71
2022/04/03 10:08:46;;;;;;;;;3.50;3.00;;;;;24.59;20.57;102196.31;5030405;28;45402;-72
2022/04/03 10:11:12;;;;;;;;;1.75;1.75;;;;;24.69;20.67;102191.91;5040453;28;46540;-71
2022/04/03 10:13:38;;;;;;;;;3.00;3.00;;;;;24.53;20.35;102186.00;5031983;28;45505;-71
2022/04/03 10:16:04;;;;;;;;;3.00;2.75;;;;;24.35;20.67;102190.13;5030485;28;45425;-69
2022/04/03 10:18:30;;;;;;;;;2.00;2.00;;;;;24.60;20.57;102184.56;5033018;28;45707;-69
2022/04/03 10:20:55;;;;;;;;;2.75;2.25;;;;;24.69;21.04;102185.66;5031780;28;46107;-70
2022/04/03 10:23:24;;;;;;;;;2.00;2.00;;;;;24.50;21.01;102188.97;5038437;28;45289;-70
2022/04/03 10:25:54;;;;;;;;;2.50;2.50;;;;;24.13;21.05;102189.13;5038702;28;45659;-70
2022/04/03 10:28:22;;;;;;;;;4.00;2.00;;;;;23.75;20.69;102193.88;5033066;28;45775;-70
2022/04/03 10:30:58;;;;;;;;;5.25;2.75;;;;;22.69;21.27;102189.97;5033192;28;47007;-69
2022/04/03 10:33:24;;;;;;;;;3.00;3.00;;;;;22.07;21.38;102183.50;5037240;28;45504;-70
2022/04/03 10:36:08;;;;;;;;;3.50;3.50;;;;;21.70;22.30;102178.94;5033960;28;45473;-73
2022/04/03 10:38:57;;;;;;;;;4.50;2.50;;;;;21.19;21.72;102189.41;5034735;28;47000;-68
2022/04/03 10:41:35;;;;;;;;;2.75;2.75;;;;;20.93;22.85;102178.56;5025660;28;45600;-71
2022/04/03 10:44:13;;;;;;;;;4.50;3.25;;;;;20.73;22.53;102181.66;5038627;28;45375;-71
2022/04/03 10:47:05;;;;;;;;;4.50;2.50;;;;;20.69;23.56;102188.13;5034336;28;45337;-71
2022/04/03 10:49:37;;;;;;;;;3.25;3.00;;;;;20.40;23.37;102180.06;5026908;28;45556;-70
2022/04/03 10:52:07;;;;;;;;;3.25;3.00;;;;;19.67;22.85;102179.13;5030361;28;45409;-71
2022/04/03 10:54:43;;;;;;;;;4.00;3.00;;;;;19.55;23.88;102178.03;5034057;28;45742;-71
2022/04/03 10:57:35;;;;;;;;;2.00;2.00;;;;;19.35;23.70;102183.63;5031647;28;45461;-71
2022/04/03 11:00:11;;;;;;;;;3.00;3.00;;;;;18.47;23.53;102180.41;5012076;28;45554;-71
2022/04/03 11:02:37;;;;;;;;;2.50;2.50;;;;;17.81;24.07;102180.31;5030686;28;45904;-70
2022/04/03 11:05:22;;;;;;;;;4.00;4.00;;;;;17.54;24.48;102173.66;5029050;28;45761;-70
2022/04/03 11:08:00;;;;;;;;;2.50;2.50;;;;;17.19;24.43;102177.09;5030106;28;45612;-70
2022/04/03 11:10:52;;;;;;;;;4.00;3.00;;;;;16.56;24.62;102181.78;5035094;28;45497;-70
2022/04/03 11:13:29;;;;;;;;;3.50;3.00;;;;;16.06;25.19;102170.72;5019191;28;45640;-68
2022/04/03 11:16:04;;;;;;;;;2.25;2.25;;;;;15.67;25.91;102160.03;5023862;28;45826;-69
2022/04/03 11:18:31;;;;;;;;;3.75;3.75;;;;;15.71;25.45;102154.53;5043965;28;45577;-69
2022/04/03 11:21:11;;;;;;;;;3.25;3.25;;;;;15.79;25.33;102143.59;5044563;28;45575;-69